createdAt,value
2023-05-17T00:01:28.655Z,3.80
2023-05-17T00:03:56.768Z,4.47
2023-05-17T00:06:24.687Z,7.80
2023-05-17T00:08:54.063Z,4.53
2023-05-17T00:11:22.071Z,4.33
2023-05-17T00:13:50.031Z,4.97
2023-05-17T00:16:17.971Z,3.87
2023-05-17T00:18:46.162Z,4.60
2023-05-17T00:21:14.189Z,4.43
2023-05-17T00:23:42.130Z,3.80
2023-05-17T00:26:11.465Z,4.73
2023-05-17T00:28:40.330Z,5.00
2023-05-17T00:31:08.325Z,4.17
2023-05-17T00:33:36.423Z,5.03
2023-05-17T00:36:04.845Z,4.10
2023-05-17T00:38:32.938Z,4.60
2023-05-17T00:41:00.986Z,10.03
2023-05-17T00:43:30.451Z,6.30
2023-05-17T00:45:58.463Z,4.50
2023-05-17T00:48:26.938Z,4.83
2023-05-17T00:50:56.347Z,4.40
2023-05-17T00:53:24.699Z,4.10
2023-05-17T00:55:54.898Z,4.80
2023-05-17T00:58:24.047Z,6.00
2023-05-17T01:00:55.117Z,4.30
2023-05-17T01:03:23.633Z,5.90
2023-05-17T01:05:52.393Z,5.73
2023-05-17T01:08:20.438Z,4.47
2023-05-17T01:10:58.466Z,5.00
2023-05-17T01:13:33.206Z,4.83
2023-05-17T01:16:11.608Z,5.30
2023-05-17T01:18:45.901Z,4.50
2023-05-17T01:21:35.518Z,6.17
2023-05-17T01:24:24.501Z,5.80
2023-05-17T01:26:55.198Z,4.60
2023-05-17T01:29:27.722Z,4.40
2023-05-17T01:31:58.404Z,6.23
2023-05-17T01:34:27.177Z,4.63
2023-05-17T01:36:55.412Z,5.10
2023-05-17T01:39:23.322Z,4.97
2023-05-17T01:42:01.319Z,3.90
2023-05-17T01:44:37.965Z,4.33
2023-05-17T01:47:13.002Z,4.47
2023-05-17T01:49:42.759Z,3.87
2023-05-17T01:52:17.239Z,3.90
2023-05-17T01:54:50.084Z,4.33
2023-05-17T01:57:21.598Z,4.03
2023-05-17T01:59:52.859Z,6.60
2023-05-17T02:02:22.506Z,4.40
2023-05-17T02:04:51.574Z,3.80
2023-05-17T02:07:19.601Z,3.40
2023-05-17T02:09:47.606Z,4.20
2023-05-17T02:12:16.018Z,4.00
2023-05-17T02:14:45.408Z,3.00
2023-05-17T02:17:13.600Z,3.43
2023-05-17T02:19:41.699Z,3.83
2023-05-17T02:22:09.669Z,4.10
2023-05-17T02:24:37.578Z,4.10
2023-05-17T02:27:07.100Z,3.00
2023-05-17T02:29:35.198Z,4.07
2023-05-17T02:32:06.138Z,4.00
2023-05-17T02:34:34.327Z,2.97
2023-05-17T02:37:02.315Z,3.13
2023-05-17T02:39:30.263Z,3.13
2023-05-17T02:41:58.135Z,2.83
2023-05-17T02:44:26.190Z,2.60
2023-05-17T02:46:54.597Z,3.20
2023-05-17T02:49:23.987Z,3.00
2023-05-17T02:51:51.892Z,2.80
2023-05-17T02:54:19.886Z,3.50
2023-05-17T02:56:47.944Z,3.77
2023-05-17T02:59:16.068Z,3.17
2023-05-17T03:01:44.010Z,3.07
2023-05-17T03:04:12.671Z,3.23
2023-05-17T03:06:43.010Z,7.43
2023-05-17T03:09:11.175Z,3.50
2023-05-17T03:11:39.423Z,5.30
2023-05-17T03:14:13.524Z,3.17
2023-05-17T03:16:41.584Z,3.90
2023-05-17T03:19:10.144Z,3.33
2023-05-17T03:21:40.135Z,3.60
2023-05-17T03:24:09.684Z,4.70
2023-05-17T03:26:38.826Z,3.10
2023-05-17T03:29:08.704Z,4.00
2023-05-17T03:31:37.691Z,3.00
2023-05-17T03:34:05.923Z,2.97
2023-05-17T03:36:35.544Z,3.00
2023-05-17T03:39:03.514Z,3.00
2023-05-17T03:41:33.490Z,4.90
2023-05-17T03:44:02.421Z,2.90
2023-05-17T03:46:31.353Z,2.87
2023-05-17T03:48:59.771Z,4.10
2023-05-17T03:51:27.833Z,3.57
2023-05-17T03:53:59.456Z,3.10
2023-05-17T03:56:28.868Z,2.70
2023-05-17T03:58:58.158Z,3.57
2023-05-17T04:01:26.655Z,2.97
2023-05-17T04:03:54.682Z,2.50
2023-05-17T04:06:23.694Z,2.07
2023-05-17T04:08:51.724Z,3.80
2023-05-17T04:11:23.809Z,2.50
2023-05-17T04:13:52.040Z,2.63
2023-05-17T04:16:22.157Z,2.27
2023-05-17T04:18:52.753Z,2.07
2023-05-17T04:21:20.924Z,3.50
2023-05-17T04:23:49.297Z,2.40
2023-05-17T04:26:17.704Z,3.37
2023-05-17T04:28:45.781Z,2.20
2023-05-17T04:31:16.750Z,2.00
2023-05-17T04:33:46.927Z,2.00
2023-05-17T04:36:14.900Z,2.07
2023-05-17T04:38:43.998Z,2.23
2023-05-17T04:41:16.119Z,2.17
2023-05-17T04:43:44.595Z,1.97
2023-05-17T04:46:20.350Z,2.40
2023-05-17T04:48:50.110Z,3.00
2023-05-17T04:51:18.328Z,2.90
2023-05-17T04:53:46.444Z,5.40
2023-05-17T04:56:18.213Z,4.13
2023-05-17T04:58:46.187Z,4.27
2023-05-17T05:01:14.772Z,4.03
2023-05-17T05:03:42.936Z,2.80
2023-05-17T05:06:16.169Z,2.67
2023-05-17T05:08:44.353Z,2.30
2023-05-17T05:11:13.487Z,1.90
2023-05-17T05:13:42.380Z,11.67
2023-05-17T05:16:10.426Z,4.60
2023-05-17T05:18:38.892Z,1.80
2023-05-17T05:21:09.695Z,3.10
2023-05-17T05:23:40.573Z,2.07
2023-05-17T05:26:08.674Z,2.97
2023-05-17T05:28:37.310Z,2.40
2023-05-17T05:31:05.441Z,2.00
2023-05-17T05:33:41.704Z,2.80
2023-05-17T05:36:10.821Z,1.97
2023-05-17T05:38:40.153Z,2.20
2023-05-17T05:41:08.303Z,2.00
2023-05-17T05:43:38.277Z,2.60
2023-05-17T05:46:07.379Z,1.90
2023-05-17T05:48:39.396Z,1.83
2023-05-17T05:51:08.017Z,2.10
2023-05-17T05:53:38.046Z,1.80
2023-05-17T05:56:08.034Z,1.60
2023-05-17T05:58:36.002Z,1.63
2023-05-17T06:01:06.440Z,1.97
2023-05-17T06:03:34.675Z,1.57
2023-05-17T06:06:02.771Z,1.63
2023-05-17T06:08:30.768Z,1.53
2023-05-17T06:10:58.677Z,1.60
2023-05-17T06:13:27.981Z,1.60
2023-05-17T06:15:55.912Z,2.63
2023-05-17T06:18:26.328Z,1.60
2023-05-17T06:20:54.388Z,1.50
2023-05-17T06:23:22.322Z,1.47
2023-05-17T06:25:50.197Z,2.17
2023-05-17T06:28:18.643Z,1.83
2023-05-17T06:30:47.984Z,1.70
2023-05-17T06:33:16.001Z,1.67
2023-05-17T06:35:55.638Z,1.43
2023-05-17T06:38:24.608Z,1.57
2023-05-17T06:40:53.889Z,2.00
2023-05-17T06:43:22.600Z,1.40
2023-05-17T06:45:51.991Z,1.53
2023-05-17T06:48:20.239Z,1.50
2023-05-17T06:50:48.270Z,3.67
2023-05-17T06:53:16.346Z,1.70
2023-05-17T06:55:44.429Z,2.27
2023-05-17T06:58:12.490Z,1.97
2023-05-17T07:00:44.670Z,1.70
2023-05-17T07:03:14.040Z,4.17
2023-05-17T07:05:42.071Z,2.37
2023-05-17T07:08:10.049Z,1.90
2023-05-17T07:10:37.946Z,2.00
2023-05-17T07:13:05.893Z,1.60
2023-05-17T07:15:33.840Z,2.30
2023-05-17T07:18:01.918Z,2.80
2023-05-17T07:20:31.539Z,2.00
2023-05-17T07:22:59.475Z,1.70
2023-05-17T07:25:27.661Z,1.60
2023-05-17T07:27:56.041Z,1.90
2023-05-17T07:30:24.067Z,3.10
2023-05-17T07:32:52.109Z,1.90
2023-05-17T07:35:21.824Z,1.60
2023-05-17T07:37:51.464Z,1.50
2023-05-17T07:40:19.716Z,1.80
2023-05-17T07:42:47.659Z,3.50
2023-05-17T07:45:15.601Z,2.20
2023-05-17T07:47:43.658Z,1.70
2023-05-17T07:50:12.409Z,2.03
2023-05-17T07:52:40.479Z,1.90
2023-05-17T07:55:11.135Z,2.30
2023-05-17T07:57:39.033Z,1.60
2023-05-17T08:00:11.439Z,1.67
2023-05-17T08:02:42.587Z,1.70
2023-05-17T08:05:11.396Z,1.47
2023-05-17T08:07:39.392Z,1.63
2023-05-17T08:10:09.621Z,1.63
2023-05-17T08:12:37.611Z,1.60
2023-05-17T08:15:06.403Z,1.53
2023-05-17T08:17:34.507Z,2.00
2023-05-17T08:20:02.628Z,2.03
2023-05-17T08:22:30.541Z,1.60
2023-05-17T08:24:58.446Z,2.37
2023-05-17T08:27:27.707Z,2.30
2023-05-17T08:29:59.799Z,1.70
2023-05-17T08:32:28.134Z,1.60
2023-05-17T08:34:56.858Z,2.33
2023-05-17T08:37:24.998Z,2.60
2023-05-17T08:39:53.029Z,1.73
2023-05-17T08:42:25.200Z,1.80
2023-05-17T08:44:54.806Z,1.60
2023-05-17T08:47:29.960Z,1.90
2023-05-17T08:50:00.476Z,3.13
2023-05-17T08:52:31.190Z,2.20
2023-05-17T08:55:00.979Z,1.93
2023-05-17T08:57:31.393Z,2.70
2023-05-17T09:00:01.438Z,1.70
2023-05-17T09:02:31.735Z,1.77
2023-05-17T09:05:00.945Z,3.63
2023-05-17T09:07:28.831Z,5.03
2023-05-17T09:09:58.386Z,1.73
2023-05-17T09:12:26.387Z,1.63
2023-05-17T09:14:54.347Z,1.43
2023-05-17T09:17:23.851Z,2.10
2023-05-17T09:19:52.079Z,2.07
2023-05-17T09:22:20.677Z,2.70
2023-05-17T09:24:48.681Z,2.37
2023-05-17T09:27:19.538Z,3.40
2023-05-17T09:29:48.364Z,2.00
2023-05-17T09:32:18.014Z,2.33
2023-05-17T09:34:48.308Z,2.90
2023-05-17T09:37:18.250Z,1.97
2023-05-17T09:39:47.712Z,2.00
2023-05-17T09:42:16.964Z,2.80
2023-05-17T09:44:51.001Z,2.33
2023-05-17T09:47:26.373Z,1.87
2023-05-17T09:49:57.130Z,1.60
2023-05-17T09:52:25.826Z,2.87
2023-05-17T09:54:54.883Z,1.97
2023-05-17T09:57:23.351Z,4.67
2023-05-17T09:59:53.032Z,1.87
2023-05-17T10:02:25.886Z,1.80
2023-05-17T10:04:58.568Z,2.07
2023-05-17T10:07:28.214Z,2.17
2023-05-17T10:09:57.477Z,1.80
2023-05-17T10:12:30.476Z,1.80
2023-05-17T10:15:00.061Z,1.90
2023-05-17T10:17:29.901Z,2.40
2023-05-17T10:20:00.538Z,2.20
2023-05-17T10:22:29.910Z,1.90
2023-05-17T10:24:58.988Z,1.70
2023-05-17T10:27:27.908Z,2.20
2023-05-17T10:29:56.170Z,1.90
2023-05-17T10:32:27.125Z,1.80
2023-05-17T10:35:09.205Z,1.70
2023-05-17T10:37:42.361Z,2.00
2023-05-17T10:40:13.801Z,1.73
2023-05-17T10:42:50.895Z,6.40
2023-05-17T10:45:22.570Z,2.53
2023-05-17T10:47:52.583Z,2.17
2023-05-17T10:50:24.014Z,1.90
2023-05-17T10:52:55.804Z,2.53
2023-05-17T10:55:26.132Z,2.60
2023-05-17T10:58:15.901Z,1.97
2023-05-17T11:00:47.085Z,2.27
2023-05-17T11:03:17.914Z,2.13
2023-05-17T11:06:12.715Z,1.90
2023-05-17T11:09:08.808Z,2.60
2023-05-17T11:11:36.762Z,1.80
2023-05-17T11:14:05.982Z,1.90
2023-05-17T11:16:37.413Z,1.63
2023-05-17T11:19:09.695Z,1.93
2023-05-17T11:21:46.472Z,1.87
2023-05-17T11:24:24.698Z,1.80
2023-05-17T11:26:55.931Z,2.20
2023-05-17T11:29:30.159Z,1.80
2023-05-17T11:31:58.380Z,2.00
2023-05-17T11:34:26.984Z,1.90
2023-05-17T11:36:56.934Z,1.80
2023-05-17T11:39:26.940Z,2.53
2023-05-17T11:41:56.786Z,2.17
2023-05-17T11:44:29.465Z,2.00
2023-05-17T11:47:04.987Z,1.90
2023-05-17T11:49:36.311Z,1.90
2023-05-17T11:52:06.120Z,2.27
2023-05-17T11:54:36.441Z,2.87
2023-05-17T11:57:05.217Z,2.00
2023-05-17T11:59:39.842Z,2.17
2023-05-17T12:02:08.084Z,1.90
2023-05-17T12:04:38.403Z,2.30
2023-05-17T12:07:10.456Z,1.63
2023-05-17T12:09:40.331Z,2.10
2023-05-17T12:12:09.734Z,2.37
2023-05-17T12:14:37.903Z,2.10
2023-05-17T12:17:09.780Z,3.33
2023-05-17T12:19:37.874Z,2.27
2023-05-17T12:22:12.409Z,2.77
2023-05-17T12:24:43.519Z,2.17
2023-05-17T12:27:12.045Z,1.80
2023-05-17T12:29:40.765Z,2.70
2023-05-17T12:32:11.199Z,1.90
2023-05-17T12:34:40.621Z,1.90
2023-05-17T12:37:10.872Z,2.30
2023-05-17T12:39:39.479Z,2.33
2023-05-17T12:42:10.313Z,2.20
2023-05-17T12:44:38.598Z,2.70
2023-05-17T12:47:07.514Z,1.90
2023-05-17T12:49:40.085Z,2.20
2023-05-17T12:52:08.736Z,2.00
2023-05-17T12:54:36.796Z,2.20
2023-05-17T12:57:15.976Z,1.93
2023-05-17T12:59:48.045Z,1.90
2023-05-17T13:02:16.785Z,1.80
2023-05-17T13:04:44.780Z,1.97
2023-05-17T13:07:13.117Z,2.27
2023-05-17T13:09:48.094Z,2.93
2023-05-17T13:12:22.351Z,2.30
2023-05-17T13:14:53.175Z,1.80
2023-05-17T13:17:26.426Z,2.50
2023-05-17T13:19:54.519Z,2.20
2023-05-17T13:22:23.793Z,2.30
2023-05-17T13:24:52.044Z,3.70
2023-05-17T13:27:21.328Z,2.33
2023-05-17T13:29:49.258Z,2.30
2023-05-17T13:32:17.198Z,2.00
2023-05-17T13:34:45.143Z,1.93
2023-05-17T13:37:13.245Z,2.40
2023-05-17T13:39:41.701Z,2.27
2023-05-17T13:42:10.565Z,2.77
2023-05-17T13:44:39.958Z,3.07
2023-05-17T13:47:09.027Z,2.60
2023-05-17T13:49:37.334Z,1.97
2023-05-17T13:52:08.463Z,2.67
2023-05-17T13:54:36.720Z,2.23
2023-05-17T13:57:05.308Z,2.40
2023-05-17T13:59:33.290Z,2.20
2023-05-17T14:02:04.122Z,2.20
2023-05-17T14:04:32.013Z,2.23
2023-05-17T14:07:00.037Z,1.90
2023-05-17T14:09:30.471Z,2.23
2023-05-17T14:12:00.373Z,2.50
2023-05-17T14:14:29.232Z,2.53
2023-05-17T14:16:57.757Z,2.53
2023-05-17T14:19:27.217Z,3.90
2023-05-17T14:21:55.272Z,2.30
2023-05-17T14:24:23.333Z,2.60
2023-05-17T14:26:51.299Z,2.60
2023-05-17T14:29:19.179Z,2.30
2023-05-17T14:31:47.234Z,2.83
2023-05-17T14:34:15.262Z,2.70
2023-05-17T14:36:44.680Z,2.47
2023-05-17T14:39:12.662Z,2.70
2023-05-17T14:41:41.634Z,2.57
2023-05-17T14:44:10.784Z,3.27
2023-05-17T14:46:38.650Z,3.60
2023-05-17T14:49:06.939Z,3.53
2023-05-17T14:51:34.912Z,2.90
2023-05-17T14:54:04.475Z,2.80
2023-05-17T14:56:32.406Z,2.90
2023-05-17T14:59:00.582Z,2.40
2023-05-17T15:01:29.130Z,2.67
2023-05-17T15:03:57.362Z,2.63
2023-05-17T15:06:26.168Z,5.63
2023-05-17T15:08:54.957Z,2.80
2023-05-17T15:11:24.322Z,3.03
2023-05-17T15:13:52.867Z,2.70
2023-05-17T15:16:21.060Z,2.97
2023-05-17T15:18:49.223Z,3.10
2023-05-17T15:21:19.017Z,2.70
2023-05-17T15:23:47.923Z,3.17
2023-05-17T15:26:15.793Z,2.90
2023-05-17T15:28:45.324Z,3.07
2023-05-17T15:31:13.256Z,4.37
2023-05-17T15:33:43.205Z,2.77
2023-05-17T15:36:13.215Z,2.87
2023-05-17T15:38:41.383Z,4.80
2023-05-17T15:41:14.187Z,3.23
2023-05-17T15:43:42.629Z,2.80
2023-05-17T15:46:12.164Z,2.90
2023-05-17T15:48:40.221Z,2.70
2023-05-17T15:51:08.715Z,2.70
2023-05-17T15:53:36.589Z,4.27
2023-05-17T15:56:04.887Z,3.00
2023-05-17T15:58:34.053Z,2.80
2023-05-17T16:01:04.995Z,2.67
2023-05-17T16:03:34.482Z,3.03
2023-05-17T16:06:04.210Z,3.20
2023-05-17T16:08:32.633Z,3.13
2023-05-17T16:11:02.321Z,4.60
2023-05-17T16:13:31.048Z,3.00
2023-05-17T16:15:59.669Z,2.63
2023-05-17T16:18:27.714Z,2.80
2023-05-17T16:21:01.168Z,4.90
2023-05-17T16:23:29.119Z,3.30
2023-05-17T16:25:57.265Z,3.40
2023-05-17T16:28:28.340Z,2.83
2023-05-17T16:30:56.321Z,2.67
2023-05-17T16:33:24.311Z,4.03
2023-05-17T16:35:52.336Z,3.43
2023-05-17T16:38:21.690Z,2.93
2023-05-17T16:40:49.718Z,2.90
2023-05-17T16:43:17.569Z,2.50
2023-05-17T16:45:46.465Z,3.27
2023-05-17T16:48:15.057Z,3.37
2023-05-17T16:50:43.323Z,3.40
2023-05-17T16:53:12.204Z,2.83
2023-05-17T16:55:42.176Z,3.10
2023-05-17T16:58:10.132Z,3.00
2023-05-17T17:00:40.087Z,3.37
2023-05-17T17:03:09.822Z,3.23
2023-05-17T17:05:38.269Z,3.07
2023-05-17T17:08:06.232Z,2.90
2023-05-17T17:10:35.807Z,3.50
2023-05-17T17:13:05.105Z,2.90
2023-05-17T17:15:33.101Z,3.40
2023-05-17T17:18:00.989Z,2.90
2023-05-17T17:20:29.189Z,3.10
2023-05-17T17:22:57.448Z,2.70
2023-05-17T17:25:25.795Z,2.73
2023-05-17T17:27:53.739Z,2.60
2023-05-17T17:30:23.036Z,3.00
2023-05-17T17:32:51.000Z,3.20
2023-05-17T17:35:19.015Z,3.40
2023-05-17T17:37:47.038Z,2.80
2023-05-17T17:40:15.043Z,2.90
2023-05-17T17:42:42.940Z,3.50
2023-05-17T17:45:11.520Z,2.80
2023-05-17T17:47:42.089Z,4.00
2023-05-17T17:50:10.564Z,3.27
2023-05-17T17:52:38.424Z,3.53
2023-05-17T17:55:10.093Z,3.77
2023-05-17T17:57:38.001Z,3.10
2023-05-17T18:00:17.301Z,3.00
2023-05-17T18:02:46.623Z,3.30
2023-05-17T18:05:14.607Z,3.30
2023-05-17T18:07:42.505Z,3.33
2023-05-17T18:10:11.201Z,3.70
2023-05-17T18:12:39.116Z,3.37
2023-05-17T18:15:07.690Z,5.70
2023-05-17T18:17:35.840Z,3.57
2023-05-17T18:20:06.782Z,4.17
2023-05-17T18:22:35.392Z,3.70
2023-05-17T18:25:03.252Z,3.90
2023-05-17T18:27:31.117Z,3.47
2023-05-17T18:29:58.961Z,3.80
2023-05-17T18:32:27.060Z,3.90
2023-05-17T18:34:55.076Z,4.00
2023-05-17T18:37:24.463Z,4.20
2023-05-17T18:39:53.916Z,5.27
2023-05-17T18:42:24.754Z,3.67
2023-05-17T18:44:52.687Z,4.47
2023-05-17T18:47:21.358Z,3.80
2023-05-17T18:49:49.365Z,3.60
2023-05-17T18:52:17.660Z,5.30
2023-05-17T18:54:47.612Z,4.07
2023-05-17T18:57:15.813Z,4.33
2023-05-17T18:59:43.737Z,3.90
2023-05-17T19:02:11.577Z,3.60
2023-05-17T19:04:40.040Z,3.93
2023-05-17T19:07:08.166Z,4.40
2023-05-17T19:09:36.097Z,3.93
2023-05-17T19:12:06.249Z,5.53
2023-05-17T19:14:34.171Z,3.47
2023-05-17T19:17:02.160Z,4.57
2023-05-17T19:19:31.138Z,3.60
2023-05-17T19:22:00.714Z,6.30
2023-05-17T19:24:28.692Z,3.30
2023-05-17T19:26:56.612Z,3.20
2023-05-17T19:29:27.171Z,3.30
2023-05-17T19:31:55.179Z,3.50
2023-05-17T19:34:23.076Z,4.80
2023-05-17T19:36:51.022Z,3.83
2023-05-17T19:39:19.569Z,3.37
2023-05-17T19:41:47.562Z,3.33
2023-05-17T19:44:15.539Z,3.27
2023-05-17T19:46:44.836Z,4.60
2023-05-17T19:49:13.795Z,3.57
2023-05-17T19:51:41.724Z,4.93
2023-05-17T19:54:09.611Z,3.60
2023-05-17T19:56:38.131Z,4.10
2023-05-17T19:59:06.213Z,3.30
2023-05-17T20:01:34.342Z,3.37
2023-05-17T20:04:03.707Z,4.23
2023-05-17T20:06:31.717Z,3.10
2023-05-17T20:08:59.575Z,3.40
2023-05-17T20:11:27.513Z,3.30
2023-05-17T20:13:55.392Z,3.20
2023-05-17T20:16:23.256Z,3.60
2023-05-17T20:18:51.228Z,3.33
2023-05-17T20:21:21.693Z,2.83
2023-05-17T20:23:51.414Z,3.93
2023-05-17T20:26:25.647Z,3.80
2023-05-17T20:28:54.232Z,3.67
2023-05-17T20:31:22.235Z,3.60
2023-05-17T20:33:50.114Z,3.60
2023-05-17T20:36:18.420Z,3.20
2023-05-17T20:38:49.125Z,3.40
2023-05-17T20:41:17.337Z,3.00
2023-05-17T20:43:46.224Z,3.63
2023-05-17T20:46:14.528Z,3.10
2023-05-17T20:48:45.859Z,4.53
2023-05-17T20:51:14.252Z,3.40
2023-05-17T20:53:42.142Z,3.70
2023-05-17T20:56:14.151Z,3.20
2023-05-17T20:58:42.080Z,3.50
2023-05-17T21:01:10.088Z,3.23
2023-05-17T21:03:39.794Z,3.33
2023-05-17T21:06:08.298Z,3.00
2023-05-17T21:08:36.735Z,3.70
2023-05-17T21:11:04.714Z,5.93
2023-05-17T21:13:34.081Z,3.63
2023-05-17T21:16:02.124Z,4.00
2023-05-17T21:18:30.079Z,3.40
2023-05-17T21:20:57.973Z,4.13
2023-05-17T21:23:25.879Z,4.27
2023-05-17T21:25:53.832Z,3.50
2023-05-17T21:28:21.707Z,4.30
2023-05-17T21:30:50.982Z,3.77
2023-05-17T21:33:18.912Z,3.67
2023-05-17T21:35:46.886Z,3.93
2023-05-17T21:38:14.854Z,3.73
2023-05-17T21:40:42.989Z,3.90
2023-05-17T21:43:11.324Z,3.87
2023-05-17T21:45:39.810Z,3.40
2023-05-17T21:48:09.426Z,5.20
2023-05-17T21:50:37.435Z,4.30
2023-05-17T21:53:05.444Z,4.13
2023-05-17T21:55:45.789Z,4.00
2023-05-17T21:58:21.224Z,3.80
2023-05-17T22:00:49.156Z,4.30
2023-05-17T22:03:18.534Z,3.57
2023-05-17T22:05:46.506Z,3.97
2023-05-17T22:08:14.475Z,4.37
2023-05-17T22:10:42.418Z,4.50
2023-05-17T22:13:12.333Z,4.37
2023-05-17T22:15:41.399Z,4.17
2023-05-17T22:18:12.053Z,4.43
2023-05-17T22:20:41.583Z,4.50
2023-05-17T22:23:09.501Z,5.17
2023-05-17T22:25:37.489Z,4.60
2023-05-17T22:28:05.428Z,5.10
2023-05-17T22:30:33.655Z,5.13
2023-05-17T22:33:03.105Z,4.10
2023-05-17T22:35:31.115Z,3.87
2023-05-17T22:38:00.468Z,4.50
2023-05-17T22:40:28.779Z,4.30
2023-05-17T22:42:58.136Z,4.90
2023-05-17T22:45:32.810Z,4.53
2023-05-17T22:48:02.950Z,4.53
2023-05-17T22:50:34.539Z,4.10
2023-05-17T22:53:05.985Z,4.10
2023-05-17T22:55:33.996Z,5.90
2023-05-17T22:58:01.943Z,4.67
2023-05-17T23:00:29.849Z,3.97
2023-05-17T23:02:57.840Z,3.90
2023-05-17T23:05:26.380Z,4.57
2023-05-17T23:07:54.282Z,5.17
2023-05-17T23:10:23.998Z,5.00
2023-05-17T23:12:52.706Z,4.07
2023-05-17T23:15:20.811Z,4.37
2023-05-17T23:17:48.844Z,5.23
2023-05-17T23:20:16.860Z,3.90
2023-05-17T23:22:44.807Z,4.77
2023-05-17T23:25:12.746Z,4.23
2023-05-17T23:27:44.469Z,4.57
2023-05-17T23:30:13.050Z,4.60
2023-05-17T23:32:42.712Z,4.50
2023-05-17T23:35:10.829Z,5.23
2023-05-17T23:37:38.820Z,4.40
2023-05-17T23:40:09.322Z,5.10
2023-05-17T23:42:37.290Z,5.43
2023-05-17T23:45:09.256Z,4.90
2023-05-17T23:47:40.696Z,4.70
2023-05-17T23:50:10.186Z,4.10
2023-05-17T23:52:38.967Z,6.23
2023-05-17T23:55:08.045Z,4.27
2023-05-17T23:57:36.609Z,4.70
